Al Aqiq, Saudi Arabia
Current Conditions -  °F | °C
As of 3:00 PM on Monday 24 Nov 2014 (Local Time) from OEBA Reporting Station
Broken Clouds Broken Clouds  
Wind Chill: 72°   Ceiling: 3000
Heat Index: 72°   Visibility: 6mi
Dew Point: 55°   Wind: 8mph
Humidity: 57%   Direction: 210°SSW
Pressure: 30"   Gusts: NA
Location:  20.26°N, 41.67°E
Report Text: OEBA 241200Z 21007KT 9999 FEW025CB BKN030 22/13 Q1016 NOSIG
Loading
Personal Weather Stations






























Interactive Weather Map New forecast layout! Learn more

10-Day Weather Forecast

Advertisements
Track Severe Weather on mobile